sensor_id;sensor_type;location;lat;lon;timestamp;pressure;altitude;pressure_sealevel;temperature;humidity
76229;BME280;65021;53.174;18.160;2023-02-24T00:01:50;100239.75;;;5.36;80.63
76229;BME280;65021;53.174;18.160;2023-02-24T00:04:18;100236.23;;;5.34;80.59
76229;BME280;65021;53.174;18.160;2023-02-24T00:06:46;100233.65;;;5.34;80.71
76229;BME280;65021;53.174;18.160;2023-02-24T00:09:16;100225.57;;;5.33;80.75
76229;BME280;65021;53.174;18.160;2023-02-24T00:11:46;100223.70;;;5.33;81.04
76229;BME280;65021;53.174;18.160;2023-02-24T00:14:14;100221.91;;;5.34;80.72
76229;BME280;65021;53.174;18.160;2023-02-24T00:16:45;100218.42;;;5.34;81.06
76229;BME280;65021;53.174;18.160;2023-02-24T00:19:14;100217.09;;;5.33;81.43
76229;BME280;65021;53.174;18.160;2023-02-24T00:21:42;100211.70;;;5.34;81.08
76229;BME280;65021;53.174;18.160;2023-02-24T00:24:08;100212.02;;;5.35;80.97
76229;BME280;65021;53.174;18.160;2023-02-24T00:26:35;100208.92;;;5.39;80.99
76229;BME280;65021;53.174;18.160;2023-02-24T00:29:07;100210.52;;;5.41;80.97
76229;BME280;65021;53.174;18.160;2023-02-24T00:31:35;100206.19;;;5.42;80.96
76229;BME280;65021;53.174;18.160;2023-02-24T00:34:05;100205.79;;;5.44;81.11
76229;BME280;65021;53.174;18.160;2023-02-24T00:36:32;100196.12;;;5.44;81.09
76229;BME280;65021;53.174;18.160;2023-02-24T00:39:04;100197.36;;;5.46;81.17
76229;BME280;65021;53.174;18.160;2023-02-24T00:41:42;100190.38;;;5.46;81.14
76229;BME280;65021;53.174;18.160;2023-02-24T00:44:11;100187.58;;;5.46;81.25
76229;BME280;65021;53.174;18.160;2023-02-24T00:46:43;100185.33;;;5.46;81.25
76229;BME280;65021;53.174;18.160;2023-02-24T00:49:14;100181.93;;;5.47;81.56
76229;BME280;65021;53.174;18.160;2023-02-24T00:51:44;100182.80;;;5.49;81.44
76229;BME280;65021;53.174;18.160;2023-02-24T00:54:11;100178.64;;;5.50;81.35
76229;BME280;65021;53.174;18.160;2023-02-24T00:56:41;100176.60;;;5.51;81.84
76229;BME280;65021;53.174;18.160;2023-02-24T00:59:09;100175.14;;;5.52;81.78
76229;BME280;65021;53.174;18.160;2023-02-24T01:01:40;100175.58;;;5.54;81.53
76229;BME280;65021;53.174;18.160;2023-02-24T01:04:08;100173.92;;;5.55;82.56
76229;BME280;65021;53.174;18.160;2023-02-24T01:06:43;100176.80;;;5.54;82.44
76229;BME280;65021;53.174;18.160;2023-02-24T01:09:13;100174.90;;;5.53;82.22
76229;BME280;65021;53.174;18.160;2023-02-24T01:11:40;100173.50;;;5.54;82.16
76229;BME280;65021;53.174;18.160;2023-02-24T01:14:28;100177.23;;;5.55;81.94
76229;BME280;65021;53.174;18.160;2023-02-24T01:16:55;100173.41;;;5.58;81.92
76229;BME280;65021;53.174;18.160;2023-02-24T01:19:25;100172.43;;;5.59;83.02
76229;BME280;65021;53.174;18.160;2023-02-24T01:21:57;100168.81;;;5.60;82.54
76229;BME280;65021;53.174;18.160;2023-02-24T01:24:24;100166.17;;;5.61;82.03
76229;BME280;65021;53.174;18.160;2023-02-24T01:26:51;100162.63;;;5.63;82.04
76229;BME280;65021;53.174;18.160;2023-02-24T01:29:19;100155.36;;;5.63;82.22
76229;BME280;65021;53.174;18.160;2023-02-24T01:31:48;100154.53;;;5.63;82.58
76229;BME280;65021;53.174;18.160;2023-02-24T01:34:16;100153.46;;;5.64;82.30
76229;BME280;65021;53.174;18.160;2023-02-24T01:36:43;100150.61;;;5.64;82.06
76229;BME280;65021;53.174;18.160;2023-02-24T01:39:11;100141.27;;;5.68;82.04
76229;BME280;65021;53.174;18.160;2023-02-24T01:41:41;100140.23;;;5.68;82.48
76229;BME280;65021;53.174;18.160;2023-02-24T01:46:50;100135.10;;;5.64;82.21
76229;BME280;65021;53.174;18.160;2023-02-24T01:52:08;100128.57;;;5.63;81.98
76229;BME280;65021;53.174;18.160;2023-02-24T01:54:52;100124.38;;;5.63;81.80
76229;BME280;65021;53.174;18.160;2023-02-24T01:57:22;100122.15;;;5.62;82.28
76229;BME280;65021;53.174;18.160;2023-02-24T01:59:52;100122.40;;;5.61;81.99
76229;BME280;65021;53.174;18.160;2023-02-24T02:02:21;100118.95;;;5.62;81.94
76229;BME280;65021;53.174;18.160;2023-02-24T02:04:52;100113.17;;;5.63;82.06
76229;BME280;65021;53.174;18.160;2023-02-24T02:07:21;100105.33;;;5.64;82.18
76229;BME280;65021;53.174;18.160;2023-02-24T02:09:49;100105.77;;;5.62;82.22
76229;BME280;65021;53.174;18.160;2023-02-24T02:12:20;100098.41;;;5.60;82.16
76229;BME280;65021;53.174;18.160;2023-02-24T02:14:50;100102.64;;;5.57;82.05
76229;BME280;65021;53.174;18.160;2023-02-24T02:37:47;100089.07;;;5.44;82.36
76229;BME280;65021;53.174;18.160;2023-02-24T02:40:25;100087.74;;;5.41;82.51
76229;BME280;65021;53.174;18.160;2023-02-24T02:43:12;100084.67;;;5.38;82.28
76229;BME280;65021;53.174;18.160;2023-02-24T02:45:46;100079.96;;;5.36;82.52
76229;BME280;65021;53.174;18.160;2023-02-24T02:48:18;100080.47;;;5.35;82.41
76229;BME280;65021;53.174;18.160;2023-02-24T02:50:56;100078.19;;;5.34;82.57
76229;BME280;65021;53.174;18.160;2023-02-24T02:56:45;100076.76;;;5.34;82.63
76229;BME280;65021;53.174;18.160;2023-02-24T02:59:15;100079.77;;;5.34;82.93
76229;BME280;65021;53.174;18.160;2023-02-24T03:01:49;100075.05;;;5.36;82.60
76229;BME280;65021;53.174;18.160;2023-02-24T03:04:20;100069.77;;;5.39;82.71
76229;BME280;65021;53.174;18.160;2023-02-24T03:06:56;100064.77;;;5.39;82.79
76229;BME280;65021;53.174;18.160;2023-02-24T03:09:27;100062.20;;;5.40;83.01
76229;BME280;65021;53.174;18.160;2023-02-24T03:12:00;100062.77;;;5.38;83.19
76229;BME280;65021;53.174;18.160;2023-02-24T03:14:31;100056.55;;;5.37;83.11
76229;BME280;65021;53.174;18.160;2023-02-24T03:17:08;100056.57;;;5.35;83.02
76229;BME280;65021;53.174;18.160;2023-02-24T03:19:38;100056.13;;;5.34;83.04
76229;BME280;65021;53.174;18.160;2023-02-24T03:22:07;100055.38;;;5.33;83.05
76229;BME280;65021;53.174;18.160;2023-02-24T03:24:39;100051.52;;;5.31;82.89
76229;BME280;65021;53.174;18.160;2023-02-24T03:27:17;100048.58;;;5.30;82.95
76229;BME280;65021;53.174;18.160;2023-02-24T03:29:56;100048.10;;;5.29;83.03
76229;BME280;65021;53.174;18.160;2023-02-24T03:32:37;100042.21;;;5.29;83.22
76229;BME280;65021;53.174;18.160;2023-02-24T03:35:14;100041.92;;;5.30;83.03
76229;BME280;65021;53.174;18.160;2023-02-24T03:37:43;100036.73;;;5.32;82.93
76229;BME280;65021;53.174;18.160;2023-02-24T03:40:11;100036.70;;;5.35;82.97
76229;BME280;65021;53.174;18.160;2023-02-24T03:42:47;100036.19;;;5.38;82.90
76229;BME280;65021;53.174;18.160;2023-02-24T03:45:15;100031.80;;;5.39;83.04
76229;BME280;65021;53.174;18.160;2023-02-24T03:47:43;100030.15;;;5.41;83.14
76229;BME280;65021;53.174;18.160;2023-02-24T03:50:17;100032.14;;;5.42;83.14
76229;BME280;65021;53.174;18.160;2023-02-24T04:09:05;100008.41;;;5.42;83.35
76229;BME280;65021;53.174;18.160;2023-02-24T04:14:10;100005.27;;;5.41;83.20
76229;BME280;65021;53.174;18.160;2023-02-24T04:16:44;100000.00;;;5.42;83.33
76229;BME280;65021;53.174;18.160;2023-02-24T04:19:15;99996.70;;;5.42;83.35
76229;BME280;65021;53.174;18.160;2023-02-24T04:21:45;99996.16;;;5.41;83.23
76229;BME280;65021;53.174;18.160;2023-02-24T04:24:16;99993.94;;;5.39;83.37
76229;BME280;65021;53.174;18.160;2023-02-24T04:26:45;99993.36;;;5.35;83.36
76229;BME280;65021;53.174;18.160;2023-02-24T04:29:18;99989.15;;;5.33;83.35
76229;BME280;65021;53.174;18.160;2023-02-24T04:31:47;99991.50;;;5.31;83.55
76229;BME280;65021;53.174;18.160;2023-02-24T04:34:16;99988.30;;;5.29;83.50
76229;BME280;65021;53.174;18.160;2023-02-24T04:36:46;99987.80;;;5.28;83.38
76229;BME280;65021;53.174;18.160;2023-02-24T04:39:17;99987.44;;;5.27;83.68
76229;BME280;65021;53.174;18.160;2023-02-24T04:41:47;99980.27;;;5.25;83.84
76229;BME280;65021;53.174;18.160;2023-02-24T04:44:15;99982.10;;;5.24;83.72
76229;BME280;65021;53.174;18.160;2023-02-24T04:46:47;99976.17;;;5.23;83.50
76229;BME280;65021;53.174;18.160;2023-02-24T04:49:16;99975.93;;;5.22;83.64
76229;BME280;65021;53.174;18.160;2023-02-24T04:51:43;99976.73;;;5.22;83.74
76229;BME280;65021;53.174;18.160;2023-02-24T04:54:12;99973.52;;;5.21;83.64
76229;BME280;65021;53.174;18.160;2023-02-24T04:56:43;99971.91;;;5.21;83.62
76229;BME280;65021;53.174;18.160;2023-02-24T04:59:10;99972.42;;;5.21;83.85
76229;BME280;65021;53.174;18.160;2023-02-24T05:01:37;99968.07;;;5.20;83.83
76229;BME280;65021;53.174;18.160;2023-02-24T05:04:07;99966.55;;;5.19;83.80
76229;BME280;65021;53.174;18.160;2023-02-24T05:06:34;99963.81;;;5.18;83.81
76229;BME280;65021;53.174;18.160;2023-02-24T05:09:00;99958.84;;;5.16;83.81
76229;BME280;65021;53.174;18.160;2023-02-24T05:11:36;99954.42;;;5.14;83.66
76229;BME280;65021;53.174;18.160;2023-02-24T05:14:03;99951.14;;;5.12;83.74
76229;BME280;65021;53.174;18.160;2023-02-24T05:16:29;99952.02;;;5.10;84.11
76229;BME280;65021;53.174;18.160;2023-02-24T05:18:56;99946.95;;;5.07;84.14
76229;BME280;65021;53.174;18.160;2023-02-24T05:21:41;99947.83;;;5.04;84.00
76229;BME280;65021;53.174;18.160;2023-02-24T05:24:07;99949.65;;;5.01;83.88
76229;BME280;65021;53.174;18.160;2023-02-24T05:26:38;99942.02;;;4.99;83.91
76229;BME280;65021;53.174;18.160;2023-02-24T05:29:06;99943.52;;;4.97;83.85
76229;BME280;65021;53.174;18.160;2023-02-24T05:31:34;99941.29;;;4.97;83.92
76229;BME280;65021;53.174;18.160;2023-02-24T05:34:05;99940.04;;;4.95;83.97
76229;BME280;65021;53.174;18.160;2023-02-24T05:36:39;99939.10;;;4.95;84.02
76229;BME280;65021;53.174;18.160;2023-02-24T05:39:06;99937.70;;;4.96;83.94
76229;BME280;65021;53.174;18.160;2023-02-24T05:41:39;99934.77;;;4.99;83.84
76229;BME280;65021;53.174;18.160;2023-02-24T05:44:10;99932.39;;;5.03;83.81
76229;BME280;65021;53.174;18.160;2023-02-24T05:46:42;99932.95;;;5.05;83.88
76229;BME280;65021;53.174;18.160;2023-02-24T05:49:15;99928.01;;;5.08;83.86
76229;BME280;65021;53.174;18.160;2023-02-24T05:51:50;99932.46;;;5.11;83.92
76229;BME280;65021;53.174;18.160;2023-02-24T05:54:22;99929.07;;;5.11;84.00
76229;BME280;65021;53.174;18.160;2023-02-24T05:56:51;99923.89;;;5.13;83.96
76229;BME280;65021;53.174;18.160;2023-02-24T05:59:17;99927.02;;;5.16;83.94
76229;BME280;65021;53.174;18.160;2023-02-24T06:01:47;99922.81;;;5.20;83.85
76229;BME280;65021;53.174;18.160;2023-02-24T06:04:15;99926.68;;;5.22;83.87
76229;BME280;65021;53.174;18.160;2023-02-24T06:07:07;99924.24;;;5.24;83.95
76229;BME280;65021;53.174;18.160;2023-02-24T06:09:39;99920.73;;;5.24;83.89
76229;BME280;65021;53.174;18.160;2023-02-24T06:12:08;99918.40;;;5.23;83.89
76229;BME280;65021;53.174;18.160;2023-02-24T06:14:35;99918.00;;;5.21;83.84
76229;BME280;65021;53.174;18.160;2023-02-24T06:17:01;99918.45;;;5.19;83.95
76229;BME280;65021;53.174;18.160;2023-02-24T06:19:28;99920.21;;;5.18;83.95
76229;BME280;65021;53.174;18.160;2023-02-24T06:21:58;99915.22;;;5.14;84.42
76229;BME280;65021;53.174;18.160;2023-02-24T06:24:31;99919.80;;;5.11;84.59
76229;BME280;65021;53.174;18.160;2023-02-24T06:26:58;99914.17;;;5.07;84.81
76229;BME280;65021;53.174;18.160;2023-02-24T06:29:36;99914.16;;;5.04;84.59
76229;BME280;65021;53.174;18.160;2023-02-24T06:32:03;99918.06;;;5.03;84.45
76229;BME280;65021;53.174;18.160;2023-02-24T06:34:36;99912.94;;;5.00;84.39
76229;BME280;65021;53.174;18.160;2023-02-24T06:37:04;99914.15;;;4.99;84.21
76229;BME280;65021;53.174;18.160;2023-02-24T06:39:32;99913.96;;;4.96;84.35
76229;BME280;65021;53.174;18.160;2023-02-24T06:42:01;99911.52;;;4.95;84.23
76229;BME280;65021;53.174;18.160;2023-02-24T06:44:31;99907.66;;;4.93;84.36
76229;BME280;65021;53.174;18.160;2023-02-24T06:46:59;99907.56;;;4.87;84.62
76229;BME280;65021;53.174;18.160;2023-02-24T06:49:26;99903.30;;;4.85;84.39
76229;BME280;65021;53.174;18.160;2023-02-24T06:51:55;99900.08;;;4.85;84.28
76229;BME280;65021;53.174;18.160;2023-02-24T06:54:24;99899.23;;;4.86;84.07
76229;BME280;65021;53.174;18.160;2023-02-24T06:56:54;99897.21;;;4.88;84.10
76229;BME280;65021;53.174;18.160;2023-02-24T06:59:20;99896.63;;;4.89;83.98
76229;BME280;65021;53.174;18.160;2023-02-24T07:01:48;99896.08;;;4.91;83.86
76229;BME280;65021;53.174;18.160;2023-02-24T07:04:15;99898.09;;;4.92;83.83
76229;BME280;65021;53.174;18.160;2023-02-24T07:06:45;99901.94;;;4.92;84.07
76229;BME280;65021;53.174;18.160;2023-02-24T07:09:14;99892.80;;;4.95;83.91
76229;BME280;65021;53.174;18.160;2023-02-24T07:11:43;99889.52;;;5.00;83.91
76229;BME280;65021;53.174;18.160;2023-02-24T07:14:22;99889.90;;;5.03;83.95
76229;BME280;65021;53.174;18.160;2023-02-24T07:16:49;99889.73;;;5.06;83.85
76229;BME280;65021;53.174;18.160;2023-02-24T07:19:28;99887.44;;;5.10;83.90
76229;BME280;65021;53.174;18.160;2023-02-24T07:21:57;99887.14;;;5.15;83.72
76229;BME280;65021;53.174;18.160;2023-02-24T07:24:32;99884.97;;;5.26;83.60
76229;BME280;65021;53.174;18.160;2023-02-24T07:27:06;99881.73;;;5.33;83.57
76229;BME280;65021;53.174;18.160;2023-02-24T07:29:34;99880.30;;;5.30;83.60
76229;BME280;65021;53.174;18.160;2023-02-24T07:32:04;99880.92;;;5.19;83.55
76229;BME280;65021;53.174;18.160;2023-02-24T07:34:31;99882.03;;;5.14;83.60
76229;BME280;65021;53.174;18.160;2023-02-24T07:36:59;99885.24;;;5.12;83.47
76229;BME280;65021;53.174;18.160;2023-02-24T07:39:28;99881.88;;;5.04;83.32
76229;BME280;65021;53.174;18.160;2023-02-24T07:41:54;99876.20;;;4.92;83.31
76229;BME280;65021;53.174;18.160;2023-02-24T07:44:22;99878.09;;;4.82;83.52
76229;BME280;65021;53.174;18.160;2023-02-24T07:46:50;99884.32;;;4.79;83.55
76229;BME280;65021;53.174;18.160;2023-02-24T07:49:22;99883.55;;;4.76;83.57
76229;BME280;65021;53.174;18.160;2023-02-24T07:51:51;99884.11;;;4.68;83.26
76229;BME280;65021;53.174;18.160;2023-02-24T07:54:22;99881.88;;;4.59;82.76
76229;BME280;65021;53.174;18.160;2023-02-24T07:56:50;99886.25;;;4.55;82.69
76229;BME280;65021;53.174;18.160;2023-02-24T07:59:27;99884.55;;;4.55;82.92
76229;BME280;65021;53.174;18.160;2023-02-24T08:01:54;99878.21;;;4.55;82.96
76229;BME280;65021;53.174;18.160;2023-02-24T08:04:24;99881.80;;;4.52;82.06
76229;BME280;65021;53.174;18.160;2023-02-24T08:06:51;99878.85;;;4.42;80.96
76229;BME280;65021;53.174;18.160;2023-02-24T08:09:25;99881.84;;;4.25;79.95
76229;BME280;65021;53.174;18.160;2023-02-24T08:12:11;99871.73;;;4.20;80.31
76229;BME280;65021;53.174;18.160;2023-02-24T08:14:44;99868.77;;;4.31;80.40
76229;BME280;65021;53.174;18.160;2023-02-24T08:17:21;99867.91;;;4.44;80.28
76229;BME280;65021;53.174;18.160;2023-02-24T08:19:49;99864.45;;;4.55;80.40
76229;BME280;65021;53.174;18.160;2023-02-24T08:22:26;99855.84;;;4.59;78.59
76229;BME280;65021;53.174;18.160;2023-02-24T08:25:00;99857.61;;;4.45;76.86
76229;BME280;65021;53.174;18.160;2023-02-24T08:27:32;99859.19;;;4.45;77.98
76229;BME280;65021;53.174;18.160;2023-02-24T08:30:04;99862.02;;;4.35;77.02
76229;BME280;65021;53.174;18.160;2023-02-24T08:32:41;99856.95;;;4.33;77.51
76229;BME280;65021;53.174;18.160;2023-02-24T08:35:14;99855.58;;;4.35;77.92
76229;BME280;65021;53.174;18.160;2023-02-24T08:37:43;99853.70;;;4.36;77.84
76229;BME280;65021;53.174;18.160;2023-02-24T08:40:25;99848.98;;;4.42;77.89
76229;BME280;65021;53.174;18.160;2023-02-24T08:45:53;99845.59;;;4.59;76.54
76229;BME280;65021;53.174;18.160;2023-02-24T08:48:36;99843.77;;;4.70;76.66
76229;BME280;65021;53.174;18.160;2023-02-24T08:51:08;99846.67;;;4.76;75.11
76229;BME280;65021;53.174;18.160;2023-02-24T08:53:36;99845.81;;;4.80;75.45
76229;BME280;65021;53.174;18.160;2023-02-24T08:56:10;99844.95;;;4.81;75.10
76229;BME280;65021;53.174;18.160;2023-02-24T08:58:39;99840.56;;;4.80;75.98
76229;BME280;65021;53.174;18.160;2023-02-24T09:01:11;99837.61;;;4.81;76.27
76229;BME280;65021;53.174;18.160;2023-02-24T09:03:49;99836.61;;;4.78;73.22
76229;BME280;65021;53.174;18.160;2023-02-24T09:06:19;99835.17;;;4.86;74.33
76229;BME280;65021;53.174;18.160;2023-02-24T09:08:55;99832.13;;;4.99;74.32
76229;BME280;65021;53.174;18.160;2023-02-24T09:11:58;99828.48;;;4.96;72.33
76229;BME280;65021;53.174;18.160;2023-02-24T09:14:30;99816.05;;;4.97;73.64
76229;BME280;65021;53.174;18.160;2023-02-24T09:17:04;99815.79;;;5.04;72.82
76229;BME280;65021;53.174;18.160;2023-02-24T09:19:37;99813.64;;;5.09;72.85
76229;BME280;65021;53.174;18.160;2023-02-24T09:22:30;99814.52;;;4.98;70.56
76229;BME280;65021;53.174;18.160;2023-02-24T09:25:00;99810.80;;;4.98;72.55
76229;BME280;65021;53.174;18.160;2023-02-24T09:27:47;99807.38;;;4.99;73.58
76229;BME280;65021;53.174;18.160;2023-02-24T09:30:22;99806.69;;;4.94;71.72
76229;BME280;65021;53.174;18.160;2023-02-24T09:33:14;99802.08;;;4.79;72.56
76229;BME280;65021;53.174;18.160;2023-02-24T09:38:14;99790.05;;;4.78;73.68
76229;BME280;65021;53.174;18.160;2023-02-24T09:40:47;99787.40;;;4.86;73.89
76229;BME280;65021;53.174;18.160;2023-02-24T09:43:22;99781.95;;;4.90;73.50
76229;BME280;65021;53.174;18.160;2023-02-24T09:45:59;99780.20;;;4.89;73.13
76229;BME280;65021;53.174;18.160;2023-02-24T09:48:55;99777.97;;;4.74;71.96
76229;BME280;65021;53.174;18.160;2023-02-24T09:51:31;99773.63;;;4.52;71.71
76229;BME280;65021;53.174;18.160;2023-02-24T09:54:15;99774.90;;;4.43;72.49
76229;BME280;65021;53.174;18.160;2023-02-24T09:56:55;99772.22;;;4.31;72.42
76229;BME280;65021;53.174;18.160;2023-02-24T10:02:36;99769.92;;;4.28;73.03
76229;BME280;65021;53.174;18.160;2023-02-24T10:07:53;99768.66;;;4.26;73.28
76229;BME280;65021;53.174;18.160;2023-02-24T10:10:28;99767.45;;;4.22;73.28
76229;BME280;65021;53.174;18.160;2023-02-24T10:13:20;99766.85;;;4.15;72.74
76229;BME280;65021;53.174;18.160;2023-02-24T10:15:56;99761.16;;;4.14;73.04
76229;BME280;65021;53.174;18.160;2023-02-24T10:21:44;99750.80;;;4.25;73.39
76229;BME280;65021;53.174;18.160;2023-02-24T10:24:24;99747.33;;;4.43;73.57
76229;BME280;65021;53.174;18.160;2023-02-24T10:32:19;99730.52;;;4.56;72.85
76229;BME280;65021;53.174;18.160;2023-02-24T10:34:50;99732.83;;;4.55;72.98
76229;BME280;65021;53.174;18.160;2023-02-24T10:37:20;99723.92;;;4.50;72.40
76229;BME280;65021;53.174;18.160;2023-02-24T10:39:48;99729.23;;;4.39;72.44
76229;BME280;65021;53.174;18.160;2023-02-24T10:42:30;99722.00;;;4.33;71.63
76229;BME280;65021;53.174;18.160;2023-02-24T10:45:28;99724.80;;;4.35;72.24
76229;BME280;65021;53.174;18.160;2023-02-24T10:47:58;99716.43;;;4.48;72.74
76229;BME280;65021;53.174;18.160;2023-02-24T10:50:28;99710.20;;;4.69;72.21
76229;BME280;65021;53.174;18.160;2023-02-24T10:53:05;99707.34;;;4.79;70.77
76229;BME280;65021;53.174;18.160;2023-02-24T10:55:40;99699.47;;;4.86;70.87
76229;BME280;65021;53.174;18.160;2023-02-24T11:01:28;99696.75;;;5.00;71.12
76229;BME280;65021;53.174;18.160;2023-02-24T11:04:20;99688.70;;;4.91;70.66
76229;BME280;65021;53.174;18.160;2023-02-24T11:07:13;99679.55;;;4.76;70.38
76229;BME280;65021;53.174;18.160;2023-02-24T11:10:07;99678.93;;;4.61;70.18
76229;BME280;65021;53.174;18.160;2023-02-24T11:12:45;99671.08;;;4.45;70.11
76229;BME280;65021;53.174;18.160;2023-02-24T11:15:34;99663.33;;;4.46;70.88
76229;BME280;65021;53.174;18.160;2023-02-24T11:18:25;99663.59;;;4.47;71.12
76229;BME280;65021;53.174;18.160;2023-02-24T11:20:54;99665.50;;;4.48;70.99
76229;BME280;65021;53.174;18.160;2023-02-24T11:23:36;99663.69;;;4.50;70.81
76229;BME280;65021;53.174;18.160;2023-02-24T11:26:25;99658.02;;;4.50;70.41
76229;BME280;65021;53.174;18.160;2023-02-24T11:34:51;99650.41;;;4.28;70.60
76229;BME280;65021;53.174;18.160;2023-02-24T11:40:12;99640.17;;;4.17;69.77
76229;BME280;65021;53.174;18.160;2023-02-24T11:42:48;99633.09;;;4.08;70.19
76229;BME280;65021;53.174;18.160;2023-02-24T11:48:17;99627.36;;;3.87;70.49
76229;BME280;65021;53.174;18.160;2023-02-24T11:50:49;99627.26;;;3.82;70.77
76229;BME280;65021;53.174;18.160;2023-02-24T11:53:44;99619.48;;;3.81;70.77
76229;BME280;65021;53.174;18.160;2023-02-24T11:56:41;99611.20;;;3.78;70.50
76229;BME280;65021;53.174;18.160;2023-02-24T11:59:34;99616.88;;;3.80;70.61
76229;BME280;65021;53.174;18.160;2023-02-24T12:10:19;99602.39;;;3.70;70.08
76229;BME280;65021;53.174;18.160;2023-02-24T12:18:18;99600.10;;;3.73;69.12
76229;BME280;65021;53.174;18.160;2023-02-24T12:20:56;99600.48;;;3.84;69.12
76229;BME280;65021;53.174;18.160;2023-02-24T12:23:32;99595.53;;;3.99;68.59
76229;BME280;65021;53.174;18.160;2023-02-24T12:26:08;99592.63;;;4.10;66.93
76229;BME280;65021;53.174;18.160;2023-02-24T12:32:06;99581.36;;;4.26;67.36
76229;BME280;65021;53.174;18.160;2023-02-24T12:37:20;99579.01;;;4.19;66.47
76229;BME280;65021;53.174;18.160;2023-02-24T12:48:08;99568.60;;;3.92;67.31
76229;BME280;65021;53.174;18.160;2023-02-24T12:51:27;99565.48;;;3.88;66.63
76229;BME280;65021;53.174;18.160;2023-02-24T12:54:08;99560.44;;;3.89;67.24
76229;BME280;65021;53.174;18.160;2023-02-24T12:59:39;99560.08;;;3.91;67.24
76229;BME280;65021;53.174;18.160;2023-02-24T13:02:39;99552.95;;;3.83;67.47
76229;BME280;65021;53.174;18.160;2023-02-24T13:05:08;99547.86;;;3.78;67.93
76229;BME280;65021;53.174;18.160;2023-02-24T13:10:21;99536.20;;;3.89;67.87
76229;BME280;65021;53.174;18.160;2023-02-24T13:15:54;99533.48;;;4.07;66.52
76229;BME280;65021;53.174;18.160;2023-02-24T13:18:27;99529.14;;;4.07;66.86
76229;BME280;65021;53.174;18.160;2023-02-24T13:21:08;99526.84;;;4.05;66.24
76229;BME280;65021;53.174;18.160;2023-02-24T13:24:00;99522.89;;;4.03;66.93
76229;BME280;65021;53.174;18.160;2023-02-24T13:26:29;99515.58;;;4.08;67.37
76229;BME280;65021;53.174;18.160;2023-02-24T13:29:02;99507.59;;;4.17;67.46
76229;BME280;65021;53.174;18.160;2023-02-24T13:31:41;99508.78;;;4.23;67.27
76229;BME280;65021;53.174;18.160;2023-02-24T13:34:42;99504.46;;;4.24;67.27
76229;BME280;65021;53.174;18.160;2023-02-24T13:37:09;99500.03;;;4.16;67.68
76229;BME280;65021;53.174;18.160;2023-02-24T13:39:38;99496.20;;;4.11;67.61
76229;BME280;65021;53.174;18.160;2023-02-24T13:44:52;99489.32;;;4.14;67.98
76229;BME280;65021;53.174;18.160;2023-02-24T13:59:16;99471.02;;;4.34;68.07
76229;BME280;65021;53.174;18.160;2023-02-24T14:02:11;99471.02;;;4.32;68.17
76229;BME280;65021;53.174;18.160;2023-02-24T14:04:53;99466.38;;;4.30;67.93
76229;BME280;65021;53.174;18.160;2023-02-24T14:07:24;99462.43;;;4.28;68.18
76229;BME280;65021;53.174;18.160;2023-02-24T14:09:56;99456.71;;;4.30;68.24
76229;BME280;65021;53.174;18.160;2023-02-24T14:12:26;99455.73;;;4.26;67.92
76229;BME280;65021;53.174;18.160;2023-02-24T14:14:53;99453.46;;;4.22;68.00
76229;BME280;65021;53.174;18.160;2023-02-24T14:17:26;99451.29;;;4.20;68.32
76229;BME280;65021;53.174;18.160;2023-02-24T14:19:55;99445.34;;;4.22;68.25
76229;BME280;65021;53.174;18.160;2023-02-24T14:22:32;99444.39;;;4.26;68.21
76229;BME280;65021;53.174;18.160;2023-02-24T14:25:04;99433.09;;;4.31;68.03
76229;BME280;65021;53.174;18.160;2023-02-24T14:27:36;99433.76;;;4.34;67.93
76229;BME280;65021;53.174;18.160;2023-02-24T14:30:05;99430.63;;;4.36;67.98
76229;BME280;65021;53.174;18.160;2023-02-24T14:32:32;99427.11;;;4.36;67.94
76229;BME280;65021;53.174;18.160;2023-02-24T14:34:59;99423.22;;;4.39;67.93
76229;BME280;65021;53.174;18.160;2023-02-24T14:37:28;99416.87;;;4.43;68.03
76229;BME280;65021;53.174;18.160;2023-02-24T14:39:58;99417.30;;;4.50;68.09
76229;BME280;65021;53.174;18.160;2023-02-24T14:42:26;99409.35;;;4.53;68.00
76229;BME280;65021;53.174;18.160;2023-02-24T14:44:56;99405.80;;;4.52;67.92
76229;BME280;65021;53.174;18.160;2023-02-24T14:47:25;99400.75;;;4.48;67.24
76229;BME280;65021;53.174;18.160;2023-02-24T14:49:59;99403.84;;;4.39;67.21
76229;BME280;65021;53.174;18.160;2023-02-24T14:52:42;99401.77;;;4.32;67.40
76229;BME280;65021;53.174;18.160;2023-02-24T14:55:11;99390.59;;;4.25;67.01
76229;BME280;65021;53.174;18.160;2023-02-24T15:00:49;99381.31;;;4.08;66.39
76229;BME280;65021;53.174;18.160;2023-02-24T15:03:24;99374.89;;;4.02;66.54
76229;BME280;65021;53.174;18.160;2023-02-24T15:05:58;99371.52;;;3.96;66.38
76229;BME280;65021;53.174;18.160;2023-02-24T15:08:34;99365.75;;;3.90;66.51
76229;BME280;65021;53.174;18.160;2023-02-24T15:11:21;99365.02;;;3.87;66.47
76229;BME280;65021;53.174;18.160;2023-02-24T15:13:52;99361.31;;;3.86;66.91
76229;BME280;65021;53.174;18.160;2023-02-24T15:16:22;99359.77;;;3.86;66.92
76229;BME280;65021;53.174;18.160;2023-02-24T15:18:51;99353.87;;;3.85;66.69
76229;BME280;65021;53.174;18.160;2023-02-24T15:21:21;99355.69;;;3.81;66.81
76229;BME280;65021;53.174;18.160;2023-02-24T15:23:57;99344.33;;;3.77;66.58
76229;BME280;65021;53.174;18.160;2023-02-24T15:26:27;99346.83;;;3.73;66.57
76229;BME280;65021;53.174;18.160;2023-02-24T15:29:10;99351.23;;;3.74;66.77
76229;BME280;65021;53.174;18.160;2023-02-24T15:31:37;99346.94;;;3.72;66.67
76229;BME280;65021;53.174;18.160;2023-02-24T15:34:04;99338.30;;;3.71;66.44
76229;BME280;65021;53.174;18.160;2023-02-24T15:36:33;99341.42;;;3.71;66.76
76229;BME280;65021;53.174;18.160;2023-02-24T15:39:02;99328.12;;;3.70;66.77
76229;BME280;65021;53.174;18.160;2023-02-24T15:41:41;99327.70;;;3.69;66.97
76229;BME280;65021;53.174;18.160;2023-02-24T15:44:30;99324.33;;;3.66;66.86
76229;BME280;65021;53.174;18.160;2023-02-24T15:46:58;99323.70;;;3.61;66.89